Ellerbe, North Carolina
Current Conditions -  °F | °C
As of 5:55 PM on Monday 24 Nov 2014 (Local Time) from KRCZ Reporting Station
Scattered Clouds Scattered Clouds  
Wind Chill: 66°   Ceiling: Unl
Heat Index: 66°   Visibility: 10mi
Dew Point: 64°   Wind: 7mph
Humidity: 92%   Direction: 180°S
Pressure: 29.84"   Gusts: NA
Location:  35.07°N, 79.76°W
Report Text: KRCZ 242255Z AUTO 18006KT 10SM SCT013 19/18 A2984 RMK AO2 T01910178
Loading
Personal Weather Stations






























Interactive Weather Map New forecast layout! Learn more

10-Day Weather Forecast

Advertisements
Track Severe Weather on mobile